Time;durP1;ratioP1;P1;durP2;ratioP2;P2;SDS_P1;SDS_P2;PMS_P1;PMS_P2;Temp;Humidity;BMP_temperature;BMP_pressure;BME280_temperature;BME280_humidity;BME280_pressure;Samples;Min_cycle;Max_cycle;Signal;HPM_P1;HPM_P2
2022/06/10 00:00:13;;;;;;;16.33;13.40;;;;;;;13.96;68.65;101527.81;684484;28;1139;-76
2022/06/10 00:00:35;;;;;;;18.05;13.63;;;;;;;13.88;68.69;101513.59;680418;28;1567;-76
2022/06/10 00:00:57;;;;;;;18.58;14.00;;;;;;;13.86;68.78;101515.31;683360;28;1099;-77
2022/06/10 00:01:18;;;;;;;18.65;13.90;;;;;;;13.93;68.47;101522.50;682754;29;1002;-76
2022/06/10 00:01:39;;;;;;;19.08;14.15;;;;;;;13.87;68.75;101518.81;685409;28;960;-76
2022/06/10 00:02:21;;;;;;;18.85;13.85;;;;;;;13.92;68.83;101520.72;681230;28;1351;-76
2022/06/10 00:02:43;;;;;;;17.30;13.55;;;;;;;13.85;68.68;101519.66;680240;29;1826;-77
2022/06/10 00:03:05;;;;;;;18.27;13.60;;;;;;;13.85;68.66;101518.78;679761;29;1306;-77
2022/06/10 00:03:27;;;;;;;16.83;13.60;;;;;;;13.78;69.03;101506.34;685278;28;1370;-77
2022/06/10 00:03:47;;;;;;;19.27;13.60;;;;;;;13.84;69.07;101519.63;688753;28;1788;-77
2022/06/10 00:04:09;;;;;;;18.73;13.38;;;;;;;13.84;68.77;101519.63;687997;28;1716;-76
2022/06/10 00:04:32;;;;;;;18.67;13.32;;;;;;;13.83;69.07;101517.84;687990;28;1343;-77
2022/06/10 00:04:52;;;;;;;18.23;13.30;;;;;;;13.83;69.06;101520.47;687820;28;1847;-77
2022/06/10 00:05:16;;;;;;;19.33;13.60;;;;;;;13.77;68.92;101507.19;682898;29;1073;-77
2022/06/10 00:05:37;;;;;;;19.77;13.55;;;;;;;13.90;68.87;101527.63;678318;29;1637;-77
2022/06/10 00:06:01;;;;;;;17.83;13.88;;;;;;;13.88;68.95;101525.84;682374;29;1961;-77
2022/06/10 00:06:22;;;;;;;16.92;13.80;;;;;;;13.82;68.82;101521.28;684848;28;1241;-77
2022/06/10 00:06:44;;;;;;;17.00;13.80;;;;;;;13.91;68.92;101531.16;685204;28;1108;-76
2022/06/10 00:07:06;;;;;;;18.42;13.63;;;;;;;13.84;68.98;101522.25;684836;28;1625;-77
2022/06/10 00:07:33;;;;;;;17.80;13.60;;;;;;;13.77;68.98;101509.81;685479;28;1013;-76
2022/06/10 00:07:55;;;;;;;18.17;13.95;;;;;;;13.86;68.93;101525.78;683267;28;1249;-76
2022/06/10 00:08:19;;;;;;;17.67;14.10;;;;;;;13.80;69.00;101517.75;684768;28;1530;-76
2022/06/10 00:08:46;;;;;;;19.23;14.93;;;;;;;13.91;68.71;101534.69;681775;29;1698;-76
2022/06/10 00:09:07;;;;;;;19.48;15.13;;;;;;;13.87;69.05;101524.94;679095;29;1641;-78
2022/06/10 00:09:27;;;;;;;18.40;15.10;;;;;;;13.86;68.88;101520.53;682401;29;1057;-79
2022/06/10 00:09:48;;;;;;;18.20;15.20;;;;;;;13.87;68.83;101517.06;679034;29;1244;-79
2022/06/10 00:10:12;;;;;;;20.85;15.45;;;;;;;13.89;68.88;101525.00;681726;28;1547;-79
2022/06/10 00:10:33;;;;;;;20.58;15.45;;;;;;;13.87;69.06;101522.31;682044;29;872;-79
2022/06/10 00:10:57;;;;;;;20.15;15.07;;;;;;;13.86;68.90;101515.31;683955;28;1516;-78
2022/06/10 00:11:17;;;;;;;18.17;14.38;;;;;;;13.90;68.81;101522.38;685237;28;1029;-79
2022/06/10 00:11:38;;;;;;;18.60;14.20;;;;;;;13.92;68.99;101530.31;683430;28;1912;-78
2022/06/10 00:11:59;;;;;;;18.52;14.50;;;;;;;13.84;68.74;101509.13;683934;28;1519;-78
2022/06/10 00:12:19;;;;;;;18.83;15.10;;;;;;;13.91;69.10;101524.19;681690;29;1066;-79
2022/06/10 00:12:41;;;;;;;18.80;15.97;;;;;;;13.86;68.96;101515.31;684766;28;1350;-79
2022/06/10 00:13:03;;;;;;;20.35;16.38;;;;;;;13.83;69.19;101509.97;687919;28;1300;-79
2022/06/10 00:13:27;;;;;;;21.52;16.70;;;;;;;13.88;68.88;101517.97;688003;28;1097;-79
2022/06/10 00:13:49;;;;;;;21.10;16.42;;;;;;;13.91;69.06;101524.19;686399;28;1823;-78
2022/06/10 00:14:09;;;;;;;19.90;16.15;;;;;;;13.85;68.90;101518.78;680418;29;1100;-79
2022/06/10 00:14:30;;;;;;;19.90;15.68;;;;;;;13.83;68.89;101513.47;682124;28;1674;-79
2022/06/10 00:14:51;;;;;;;20.08;15.48;;;;;;;13.84;69.34;101523.13;684312;28;1104;-78
2022/06/10 00:15:13;;;;;;;20.00;15.00;;;;;;;13.89;69.13;101525.88;682855;29;962;-79
2022/06/10 00:15:34;;;;;;;21.95;15.25;;;;;;;13.90;68.94;101532.00;680024;29;1377;-78
2022/06/10 00:15:56;;;;;;;21.48;15.10;;;;;;;13.82;69.23;101518.69;687988;28;1127;-79
2022/06/10 00:16:19;;;;;;;20.25;15.25;;;;;;;13.81;68.87;101511.66;679866;29;1327;-79
2022/06/10 00:16:39;;;;;;;16.80;14.55;;;;;;;13.80;68.91;101512.50;679528;29;1686;-79
2022/06/10 00:17:01;;;;;;;17.70;14.40;;;;;;;13.83;69.06;101520.47;685570;28;759;-79
2022/06/10 00:17:21;;;;;;;18.40;14.93;;;;;;;13.78;69.14;101512.44;685242;28;1257;-78
2022/06/10 00:17:42;;;;;;;21.00;15.30;;;;;;;13.83;69.12;101525.72;687971;28;1265;-79
2022/06/10 00:18:03;;;;;;;20.08;15.52;;;;;;;13.76;69.17;101514.16;686481;28;1671;-79
2022/06/10 00:18:26;;;;;;;21.98;14.88;;;;;;;13.88;68.98;101539.84;685430;28;1100;-78
2022/06/10 00:18:47;;;;;;;20.75;14.82;;;;;;;13.87;68.93;101534.56;686322;28;1053;-78
2022/06/10 00:19:09;;;;;;;19.55;14.50;;;;;;;13.78;69.20;101522.09;686999;28;1862;-79
2022/06/10 00:19:36;;;;;;;18.20;14.80;;;;;;;13.79;69.11;101521.22;684933;28;788;-79
2022/06/10 00:20:11;;;;;;;19.63;14.80;;;;;;;13.83;69.31;101525.72;688151;28;1033;-79
2022/06/10 00:20:32;;;;;;;19.65;14.65;;;;;;;13.90;69.05;101539.88;689768;28;1128;-78
2022/06/10 00:20:54;;;;;;;18.70;14.38;;;;;;;13.89;69.30;101536.34;690849;28;1162;-80
2022/06/10 00:21:16;;;;;;;17.90;13.93;;;;;;;13.77;69.26;101515.94;685421;28;1304;-79
2022/06/10 00:21:37;;;;;;;18.35;14.50;;;;;;;13.83;68.99;101523.09;685025;28;1418;-79
2022/06/10 00:21:58;;;;;;;20.20;14.55;;;;;;;13.88;69.12;101531.97;687781;28;1449;-79
2022/06/10 00:22:19;;;;;;;20.80;14.90;;;;;;;13.86;69.44;101525.78;688156;28;1338;-78
2022/06/10 00:22:40;;;;;;;20.88;15.30;;;;;;;13.87;69.35;101526.69;687498;28;1882;-79
2022/06/10 00:23:01;;;;;;;20.80;16.05;;;;;;;13.82;69.40;101519.56;685523;28;1568;-79
2022/06/10 00:23:22;;;;;;;20.10;15.80;;;;;;;13.92;69.36;101532.94;685439;28;1304;-79
2022/06/10 00:23:43;;;;;;;19.30;15.30;;;;;;;13.90;69.19;101526.75;688650;28;1409;-78
2022/06/10 00:24:04;;;;;;;20.27;15.20;;;;;;;13.85;69.09;101518.78;688796;28;1341;-79
2022/06/10 00:24:24;;;;;;;20.02;15.30;;;;;;;13.89;69.23;101525.88;685269;28;1368;-79
2022/06/10 00:24:45;;;;;;;20.00;15.10;;;;;;;13.83;69.16;101517.84;685206;28;2319;-79
2022/06/10 00:25:07;;;;;;;20.00;15.00;;;;;;;13.86;68.99;101515.31;690193;28;1312;-79
2022/06/10 00:25:28;;;;;;;21.20;15.23;;;;;;;13.90;69.15;101522.38;688081;28;905;-79
2022/06/10 00:25:49;;;;;;;24.30;16.05;;;;;;;13.88;69.08;101517.97;685192;28;1060;-78
2022/06/10 00:26:12;;;;;;;24.00;16.80;;;;;;;13.83;69.00;101517.84;682024;29;1680;-79
2022/06/10 00:26:34;;;;;;;23.80;16.50;;;;;;;13.93;69.16;101534.69;685112;28;1459;-79
2022/06/10 00:26:55;;;;;;;21.23;16.02;;;;;;;13.85;69.16;101513.53;684945;28;1192;-78
2022/06/10 00:27:16;;;;;;;20.48;15.27;;;;;;;13.85;69.11;101521.41;685484;28;1012;-78
2022/06/10 00:27:37;;;;;;;21.50;15.27;;;;;;;13.93;69.00;101529.47;682464;29;1183;-78
2022/06/10 00:27:58;;;;;;;19.85;15.07;;;;;;;13.93;69.25;101534.69;685091;28;1408;-79
2022/06/10 00:28:20;;;;;;;19.50;15.43;;;;;;;13.87;69.34;101521.44;682812;29;1185;-79
2022/06/10 00:28:43;;;;;;;18.83;14.77;;;;;;;13.84;69.21;101519.63;687659;28;1192;-78
2022/06/10 00:29:04;;;;;;;21.65;15.10;;;;;;;13.82;69.39;101521.28;682385;29;1324;-78
2022/06/10 00:29:24;;;;;;;20.70;15.15;;;;;;;13.85;69.26;101521.41;680072;29;1632;-79
2022/06/10 00:29:47;;;;;;;18.15;15.32;;;;;;;13.82;69.04;101519.56;678506;29;1319;-79
2022/06/10 00:30:08;;;;;;;17.33;15.45;;;;;;;13.76;69.25;101511.53;681955;29;1343;-78
2022/06/10 00:30:30;;;;;;;18.65;15.30;;;;;;;13.86;68.97;101533.66;684759;28;962;-78
2022/06/10 00:30:51;;;;;;;19.73;15.10;;;;;;;13.82;69.20;101530.06;679816;29;1630;-78
2022/06/10 00:31:13;;;;;;;20.95;15.43;;;;;;;13.79;69.08;101518.59;684436;28;1549;-78
2022/06/10 00:31:34;;;;;;;19.02;15.07;;;;;;;13.81;68.94;101525.69;690584;28;1933;-79
2022/06/10 00:31:54;;;;;;;17.80;14.70;;;;;;;13.81;69.18;101527.41;684156;28;1469;-78
2022/06/10 00:32:17;;;;;;;16.10;13.85;;;;;;;13.78;69.01;101522.09;686462;28;1286;-79
2022/06/10 00:32:38;;;;;;;16.40;13.82;;;;;;;13.69;68.98;101513.13;688130;28;1384;-78
2022/06/10 00:32:59;;;;;;;18.38;14.32;;;;;;;13.77;69.13;101525.56;684750;28;1826;-79
2022/06/10 00:33:33;;;;;;;18.83;14.60;;;;;;;13.76;69.32;101526.41;688008;28;1119;-79
2022/06/10 00:33:54;;;;;;;19.17;14.80;;;;;;;13.69;69.23;101510.50;684556;28;1888;-80
2022/06/10 00:34:15;;;;;;;18.48;14.55;;;;;;;13.66;69.09;101513.00;688102;28;1399;-78
2022/06/10 00:34:36;;;;;;;18.47;14.60;;;;;;;13.70;69.09;101514.88;680217;29;899;-78
2022/06/10 00:34:57;;;;;;;18.77;14.82;;;;;;;13.68;68.99;101511.34;686490;28;1509;-79
2022/06/10 00:35:18;;;;;;;20.23;14.97;;;;;;;13.74;69.17;101531.59;684940;28;1138;-78
2022/06/10 00:35:39;;;;;;;19.73;14.65;;;;;;;13.70;68.96;101524.47;680264;29;1173;-78
2022/06/10 00:36:02;;;;;;;19.20;14.43;;;;;;;13.73;69.25;101526.31;680037;29;1620;-78
2022/06/10 00:36:38;;;;;;;16.55;13.80;;;;;;;13.72;69.22;101530.69;684457;28;875;-78
2022/06/10 00:36:59;;;;;;;17.35;14.40;;;;;;;13.64;68.87;101519.97;684650;28;1504;-79
2022/06/10 00:37:20;;;;;;;17.20;14.50;;;;;;;13.62;69.34;101519.03;685227;28;1222;-78
2022/06/10 00:37:41;;;;;;;16.45;14.00;;;;;;;13.67;68.97;101524.41;682834;28;1313;-78
2022/06/10 00:38:05;;;;;;;15.48;13.50;;;;;;;13.66;69.12;101528.75;678501;29;1416;-79
2022/06/10 00:38:27;;;;;;;17.27;14.15;;;;;;;13.64;69.04;101533.06;682634;29;2035;-79
2022/06/10 00:38:48;;;;;;;17.60;14.18;;;;;;;13.53;69.39;101510.94;682712;28;1355;-79
2022/06/10 00:39:08;;;;;;;18.00;14.20;;;;;;;13.57;69.14;101518.91;685042;28;1339;-79
2022/06/10 00:39:29;;;;;;;17.15;13.93;;;;;;;13.64;69.17;101535.69;680241;29;1592;-78
2022/06/10 00:39:50;;;;;;;19.35;14.10;;;;;;;13.58;69.25;101517.16;682354;29;1231;-79
2022/06/10 00:40:19;;;;;;;19.98;14.02;;;;;;;13.57;69.43;101518.00;686473;28;2222;-78
2022/06/10 00:40:43;;;;;;;19.88;13.55;;;;;;;13.62;69.44;101526.91;690631;28;1231;-79
2022/06/10 00:41:05;;;;;;;17.90;13.82;;;;;;;13.59;69.35;101524.22;684485;28;1935;-79
2022/06/10 00:41:26;;;;;;;18.23;13.80;;;;;;;13.53;69.21;101513.53;680012;28;1125;-79
2022/06/10 00:41:46;;;;;;;17.13;13.83;;;;;;;13.61;69.24;101525.13;680393;29;1045;-78
2022/06/10 00:42:12;;;;;;;17.08;13.43;;;;;;;13.54;69.42;101517.94;683150;28;1251;-79
2022/06/10 00:42:35;;;;;;;16.92;13.90;;;;;;;13.55;69.56;101514.47;685480;28;958;-79
2022/06/10 00:42:57;;;;;;;17.15;14.05;;;;;;;13.57;69.18;101518.00;683413;28;1944;-79
2022/06/10 00:43:22;;;;;;;18.90;14.30;;;;;;;13.58;69.15;101519.78;680057;29;1208;-78
2022/06/10 00:43:43;;;;;;;19.33;14.80;;;;;;;13.63;69.30;101528.69;683050;28;1321;-78
2022/06/10 00:44:04;;;;;;;19.55;15.02;;;;;;;13.51;69.07;101512.63;682491;29;2150;-79
2022/06/10 00:44:37;;;;;;;18.55;14.35;;;;;;;13.62;69.40;101531.25;679871;29;1143;-78
2022/06/10 00:44:57;;;;;;;16.67;14.32;;;;;;;13.53;69.08;101513.53;682551;28;1288;-79
2022/06/10 00:45:55;;;;;;;16.80;14.63;;;;;;;13.60;69.24;101528.59;683003;28;1014;-79
2022/06/10 00:46:30;;;;;;;19.13;14.43;;;;;;;13.53;69.15;101516.16;683865;28;1705;-79
2022/06/10 00:46:51;;;;;;;19.90;14.30;;;;;;;13.49;69.00;101509.03;689555;28;1269;-78
2022/06/10 00:47:12;;;;;;;19.60;14.30;;;;;;;13.57;69.03;101524.16;688133;28;1568;-79
2022/06/10 00:47:36;;;;;;;19.00;14.65;;;;;;;13.46;69.12;101503.72;685066;28;1486;-79
2022/06/10 00:47:57;;;;;;;18.60;13.93;;;;;;;13.42;69.07;101502.75;682279;29;1438;-79
2022/06/10 00:48:45;;;;;;;17.40;13.63;;;;;;;13.55;69.22;101527.59;687230;28;1149;-78
2022/06/10 00:49:07;;;;;;;15.18;13.57;;;;;;;13.54;69.13;101534.53;683882;28;1621;-78
2022/06/10 00:49:28;;;;;;;15.35;13.75;;;;;;;13.50;69.12;101516.06;684839;28;968;-78
2022/06/10 00:50:06;;;;;;;15.10;13.00;;;;;;;13.48;69.21;101520.38;684950;28;1441;-78
2022/06/10 00:50:30;;;;;;;16.83;13.20;;;;;;;13.52;69.16;101524.88;687752;28;1238;-78
2022/06/10 00:50:51;;;;;;;16.63;13.48;;;;;;;13.53;69.29;101531.91;688229;28;1048;-79
2022/06/10 00:51:16;;;;;;;16.13;13.32;;;;;;;13.52;69.02;101527.50;680568;29;1509;-79
2022/06/10 00:51:56;;;;;;;16.70;13.70;;;;;;;13.48;69.09;101517.75;680023;29;1911;-78
2022/06/10 00:52:32;;;;;;;18.85;14.02;;;;;;;13.45;69.51;101517.69;687994;28;1291;-79
2022/06/10 00:53:03;;;;;;;17.55;13.68;;;;;;;13.45;69.37;101517.69;687594;28;1053;-78
2022/06/10 00:53:31;;;;;;;17.15;14.18;;;;;;;13.43;69.37;101508.06;681743;29;1046;-78
2022/06/10 00:53:57;;;;;;;18.25;14.70;;;;;;;13.37;69.33;101502.63;682481;28;1428;-78
2022/06/10 00:54:22;;;;;;;19.42;14.75;;;;;;;13.50;69.10;101518.69;680990;28;1455;-78
2022/06/10 00:54:45;;;;;;;19.15;14.38;;;;;;;13.45;69.49;101509.81;682801;28;1663;-79
2022/06/10 00:55:10;;;;;;;17.67;14.25;;;;;;;13.48;68.88;101525.63;682284;29;1379;-79
2022/06/10 00:55:32;;;;;;;18.20;14.60;;;;;;;13.48;69.20;101515.16;682711;29;906;-78
2022/06/10 00:55:55;;;;;;;17.35;14.82;;;;;;;13.49;69.24;101524.78;680978;29;1053;-79
2022/06/10 00:56:20;;;;;;;18.58;15.50;;;;;;;13.39;69.40;101514.03;685345;28;1002;-78
2022/06/10 00:56:46;;;;;;;18.48;14.98;;;;;;;13.35;69.50;101517.44;685192;28;995;-78
2022/06/10 00:57:23;;;;;;;18.10;13.98;;;;;;;13.45;69.50;101517.69;683890;28;1447;-79
2022/06/10 00:57:45;;;;;;;18.38;14.35;;;;;;;13.35;69.51;101506.94;686325;28;1634;-78
2022/06/10 00:58:31;;;;;;;18.33;14.65;;;;;;;13.45;69.28;101522.94;679409;29;1658;-78
2022/06/10 00:58:58;;;;;;;21.00;14.90;;;;;;;13.45;69.43;101523.81;682674;29;1112;-78
2022/06/10 00:59:25;;;;;;;22.77;15.10;;;;;;;13.44;69.47;101516.78;682345;29;1809;-78
2022/06/10 00:59:55;;;;;;;20.02;15.15;;;;;;;13.35;69.51;101500.81;681691;29;1791;-79
2022/06/10 01:00:18;;;;;;;20.52;15.45;;;;;;;13.34;69.18;101505.16;685415;28;974;-79
2022/06/10 01:00:38;;;;;;;19.15;14.80;;;;;;;13.32;69.44;101498.09;685393;28;1140;-79
2022/06/10 01:01:01;;;;;;;19.25;14.30;;;;;;;13.33;69.23;101503.38;684662;28;1297;-79
2022/06/10 01:01:24;;;;;;;19.40;14.65;;;;;;;13.37;69.47;101509.59;691736;28;1481;-79
2022/06/10 01:01:44;;;;;;;20.45;15.25;;;;;;;13.30;69.60;101512.03;688766;28;1146;-79
2022/06/10 01:02:12;;;;;;;18.50;15.13;;;;;;;13.36;69.33;101519.22;684917;28;1385;-79
2022/06/10 01:02:35;;;;;;;18.20;14.30;;;;;;;13.39;69.47;101524.53;682373;29;1329;-78
2022/06/10 01:02:56;;;;;;;19.38;13.98;;;;;;;13.37;69.32;101523.59;682897;28;1248;-78
2022/06/10 01:03:17;;;;;;;20.00;14.45;;;;;;;13.31;69.51;101515.56;681108;29;1022;-79
2022/06/10 01:03:40;;;;;;;19.02;14.70;;;;;;;13.35;69.55;101521.78;684111;28;1398;-78
2022/06/10 01:04:02;;;;;;;18.45;14.63;;;;;;;13.34;69.33;101518.25;686005;28;1655;-78
2022/06/10 01:04:25;;;;;;;17.45;14.07;;;;;;;13.24;69.32;101511.88;687882;28;1239;-78
2022/06/10 01:04:46;;;;;;;18.70;13.93;;;;;;;13.26;69.29;101511.91;688694;28;1311;-78
2022/06/10 01:05:12;;;;;;;18.52;14.35;;;;;;;13.28;69.28;101515.47;680659;29;1487;-78
2022/06/10 01:05:33;;;;;;;19.17;14.65;;;;;;;13.26;69.63;101506.66;682722;29;1236;-79
2022/06/10 01:05:54;;;;;;;18.05;14.48;;;;;;;13.30;69.35;101521.66;684948;28;1618;-79
2022/06/10 01:06:15;;;;;;;19.00;14.07;;;;;;;13.29;69.51;101520.75;679767;29;1274;-78
2022/06/10 01:06:36;;;;;;;19.30;13.90;;;;;;;13.30;69.22;101513.78;679938;29;1436;-78
2022/06/10 01:06:57;;;;;;;20.20;13.90;;;;;;;13.34;69.28;101531.38;682342;28;1214;-79
2022/06/10 01:07:21;;;;;;;19.05;14.40;;;;;;;13.30;69.33;101519.03;685336;28;1025;-79
2022/06/10 01:07:47;;;;;;;18.13;14.10;;;;;;;13.26;69.09;101523.28;685637;28;1061;-79
2022/06/10 01:08:13;;;;;;;15.57;13.90;;;;;;;13.24;69.28;101518.84;684956;28;1222;-78
2022/06/10 01:08:34;;;;;;;16.45;14.30;;;;;;;13.29;69.29;101517.25;685372;28;994;-79
2022/06/10 01:08:57;;;;;;;16.95;14.40;;;;;;;13.23;69.57;101510.13;682587;29;1881;-78
2022/06/10 01:09:18;;;;;;;17.08;14.50;;;;;;;13.25;69.42;101520.63;685206;28;913;-79
2022/06/10 01:09:39;;;;;;;16.58;14.55;;;;;;;13.30;69.61;101529.50;683365;28;2172;-79
2022/06/10 01:10:04;;;;;;;17.02;14.60;;;;;;;13.27;69.41;101525.06;681783;29;2044;-78
2022/06/10 01:10:26;;;;;;;16.73;14.20;;;;;;;13.25;69.51;101529.38;679930;29;1088;-79
2022/06/10 01:11:13;;;;;;;16.25;13.77;;;;;;;13.26;69.26;101523.28;680967;29;1066;-79
2022/06/10 01:11:54;;;;;;;15.30;13.70;;;;;;;13.15;69.50;101509.00;685122;28;1974;-79
2022/06/10 01:12:36;;;;;;;17.58;14.30;;;;;;;13.25;69.27;101523.25;686667;28;1503;-78
2022/06/10 01:13:00;;;;;;;19.17;14.95;;;;;;;13.24;69.30;101525.00;690302;28;2012;-79
2022/06/10 01:13:51;;;;;;;17.20;14.50;;;;;;;13.22;69.23;101524.03;687951;28;1952;-79
2022/06/10 01:14:47;;;;;;;16.70;14.20;;;;;;;13.22;69.33;101523.16;684617;28;1307;-79
2022/06/10 01:15:22;;;;;;;19.05;14.95;;;;;;;13.11;69.37;101502.78;687105;28;1105;-78
2022/06/10 01:16:10;;;;;;;22.05;15.25;;;;;;;13.20;69.56;101524.84;686139;28;1028;-79
2022/06/10 01:16:50;;;;;;;19.85;15.20;;;;;;;13.16;69.67;101519.50;686952;28;1709;-79
2022/06/10 01:17:28;;;;;;;18.00;14.30;;;;;;;13.13;69.57;101513.28;687953;28;1637;-78
2022/06/10 01:18:17;;;;;;;18.33;14.13;;;;;;;13.20;69.40;101527.47;689266;28;1112;-79
2022/06/10 01:19:10;;;;;;;17.88;14.50;;;;;;;13.16;69.46;101516.00;679724;29;1325;-78
2022/06/10 01:19:48;;;;;;;17.92;14.23;;;;;;;13.20;69.62;101527.47;676517;29;1812;-79
2022/06/10 01:20:09;;;;;;;18.77;14.57;;;;;;;13.20;69.31;101527.47;674422;29;2036;-79
2022/06/10 01:20:40;;;;;;;19.10;14.83;;;;;;;13.18;69.60;101523.91;675336;29;1581;-78
2022/06/10 01:21:18;;;;;;;17.88;14.75;;;;;;;13.16;69.52;101522.13;674711;29;952;-79
2022/06/10 01:21:51;;;;;;;22.30;15.40;;;;;;;13.20;69.38;101524.84;682617;28;1135;-78
2022/06/10 01:22:44;;;;;;;23.48;15.45;;;;;;;13.13;69.67;101514.19;682287;28;1656;-79
2022/06/10 01:23:54;;;;;;;20.48;15.60;;;;;;;13.19;69.54;101523.06;682406;28;1697;-78
2022/06/10 01:24:43;;;;;;;18.58;15.18;;;;;;;13.13;69.69;101511.56;684282;28;1483;-79
2022/06/10 01:25:24;;;;;;;22.10;15.50;;;;;;;13.15;69.55;101520.34;677975;29;1245;-78
2022/06/10 01:26:15;;;;;;;20.00;15.27;;;;;;;13.13;69.42;101523.75;681713;28;1451;-79
2022/06/10 01:27:50;;;;;;;17.85;14.82;;;;;;;13.09;69.68;101519.28;684539;28;1653;-78
2022/06/10 01:28:15;;;;;;;17.98;14.35;;;;;;;13.09;69.74;101514.94;687446;28;1347;-78
2022/06/10 01:28:54;;;;;;;18.40;14.50;;;;;;;13.08;69.41;101513.16;682597;29;1484;-78
2022/06/10 01:29:24;;;;;;;18.65;15.20;;;;;;;13.09;69.36;101519.28;679771;29;1334;-79
2022/06/10 01:30:07;;;;;;;18.42;14.85;;;;;;;13.07;69.67;101514.00;681362;28;1218;-79
2022/06/10 01:31:19;;;;;;;17.85;14.50;;;;;;;13.07;69.75;101516.63;681819;29;1733;-79
2022/06/10 01:31:53;;;;;;;17.92;14.00;;;;;;;12.97;69.71;101496.25;682050;29;1967;-78
2022/06/10 01:32:27;;;;;;;19.20;14.50;;;;;;;13.00;69.54;101506.81;682012;29;1553;-78
2022/06/10 01:33:09;;;;;;;17.45;14.57;;;;;;;13.05;69.47;101518.31;679416;29;1544;-78
2022/06/10 01:34:09;;;;;;;17.00;14.05;;;;;;;13.04;69.41;101521.78;682640;28;1088;-78
2022/06/10 01:34:30;;;;;;;20.33;14.15;;;;;;;13.02;69.34;101507.72;675889;29;1603;-78
2022/06/10 01:35:11;;;;;;;19.25;14.30;;;;;;;12.92;69.43;101501.31;676452;29;1637;-78
2022/06/10 01:35:50;;;;;;;18.63;14.77;;;;;;;12.95;69.42;101508.38;683674;28;1132;-78
2022/06/10 01:36:26;;;;;;;17.03;14.10;;;;;;;12.96;69.32;101518.91;682357;29;1589;-78
2022/06/10 01:36:57;;;;;;;17.23;13.93;;;;;;;12.92;69.43;101505.66;686715;28;1126;-78
2022/06/10 01:37:41;;;;;;;17.58;14.27;;;;;;;12.96;69.49;101512.81;685075;28;903;-78
2022/06/10 01:38:24;;;;;;;17.60;14.07;;;;;;;12.93;69.50;101512.66;684954;28;1573;-78
2022/06/10 01:38:54;;;;;;;18.08;14.43;;;;;;;12.93;69.64;101510.03;681506;28;1411;-78
2022/06/10 01:39:17;;;;;;;17.05;14.18;;;;;;;12.93;69.57;101517.91;685250;28;1137;-79
2022/06/10 01:40:02;;;;;;;18.23;14.10;;;;;;;12.92;69.44;101510.88;682753;28;1869;-78
2022/06/10 01:40:51;;;;;;;17.80;14.00;;;;;;;12.77;69.57;101485.13;687486;28;1237;-78
2022/06/10 01:41:27;;;;;;;18.88;13.82;;;;;;;12.84;69.70;101501.06;689999;28;995;-78
2022/06/10 01:41:59;;;;;;;19.70;13.98;;;;;;;12.86;69.50;101507.22;690660;28;1040;-78
2022/06/10 01:42:35;;;;;;;17.85;14.15;;;;;;;12.87;69.78;101508.13;689432;28;1112;-78
2022/06/10 01:43:34;;;;;;;16.73;13.65;;;;;;;12.83;69.66;101501.91;691150;28;1094;-78
2022/06/10 01:44:20;;;;;;;20.60;14.23;;;;;;;12.85;69.82;101515.94;682396;28;2066;-78
2022/06/10 01:44:52;;;;;;;20.17;14.60;;;;;;;12.85;69.73;101508.06;683429;28;1729;-78
2022/06/10 01:45:29;;;;;;;18.38;14.40;;;;;;;12.83;69.79;101504.53;682620;28;1167;-78
2022/06/10 01:46:05;;;;;;;19.73;14.82;;;;;;;12.78;69.92;101503.50;682409;29;1128;-77
2022/06/10 01:46:32;;;;;;;18.17;13.85;;;;;;;12.74;69.71;101496.41;682353;28;1621;-77
2022/06/10 01:47:02;;;;;;;17.00;14.07;;;;;;;12.74;69.76;101496.41;684892;28;1227;-78
2022/06/10 01:47:36;;;;;;;16.00;14.30;;;;;;;12.78;69.80;101506.09;687797;28;1021;-78
2022/06/10 01:48:19;;;;;;;16.90;14.00;;;;;;;12.78;69.63;101502.63;682752;28;1326;-78
2022/06/10 01:48:45;;;;;;;17.40;14.30;;;;;;;12.81;69.90;101511.47;684492;28;1191;-78
2022/06/10 01:49:30;;;;;;;19.10;14.70;;;;;;;12.82;69.90;101500.13;683657;28;1705;-78
2022/06/10 01:50:10;;;;;;;18.50;14.45;;;;;;;12.85;69.67;101509.81;683893;28;2146;-78
2022/06/10 01:50:44;;;;;;;19.67;14.43;;;;;;;12.84;69.67;101508.06;683458;28;1483;-78
2022/06/10 01:51:29;;;;;;;18.90;14.63;;;;;;;12.78;69.43;101497.38;684969;28;1167;-78
2022/06/10 01:52:02;;;;;;;18.15;14.20;;;;;;;12.82;69.74;101510.63;685274;28;1961;-78
2022/06/10 01:52:37;;;;;;;19.52;13.82;;;;;;;12.82;69.70;101502.75;685982;28;1481;-78
2022/06/10 01:53:07;;;;;;;18.92;13.60;;;;;;;12.71;69.60;101488.44;684182;28;1510;-78
2022/06/10 01:53:37;;;;;;;15.35;13.13;;;;;;;12.71;69.67;101493.66;680795;29;1603;-78
2022/06/10 01:54:06;;;;;;;16.05;13.40;;;;;;;12.70;69.66;101490.16;683895;28;1197;-78
2022/06/10 01:54:31;;;;;;;17.05;13.73;;;;;;;12.69;69.65;101490.13;687661;28;1470;-78
2022/06/10 01:55:13;;;;;;;18.65;13.40;;;;;;;12.79;69.54;101510.50;682591;29;2136;-78
2022/06/10 01:55:48;;;;;;;16.52;13.00;;;;;;;12.80;69.74;101511.41;677212;29;940;-79
2022/06/10 01:56:30;;;;;;;15.63;13.93;;;;;;;12.71;69.21;101496.28;681081;29;1347;-79
2022/06/10 01:56:56;;;;;;;15.30;13.70;;;;;;;12.68;69.44;101490.97;683978;28;1042;-78
2022/06/10 01:57:50;;;;;;;15.77;13.52;;;;;;;12.69;69.45;101504.13;685080;28;1578;-78
2022/06/10 01:58:24;;;;;;;18.33;13.93;;;;;;;12.74;69.65;101506.88;673999;29;1486;-78
2022/06/10 01:58:49;;;;;;;18.05;14.13;;;;;;;12.74;69.76;101504.25;675026;29;1540;-78
2022/06/10 01:59:41;;;;;;;18.13;14.07;;;;;;;12.74;69.64;101515.59;683211;28;2018;-78
2022/06/10 02:00:16;;;;;;;15.10;13.50;;;;;;;12.63;69.61;101497.78;682240;29;1256;-79
2022/06/10 02:00:43;;;;;;;16.23;13.73;;;;;;;12.69;69.61;101504.13;679722;29;1151;-78
2022/06/10 02:01:18;;;;;;;16.83;13.63;;;;;;;12.69;69.49;101511.06;681236;28;1100;-78
2022/06/10 02:01:44;;;;;;;16.10;13.20;;;;;;;12.73;69.56;101520.81;683025;28;1491;-78
2022/06/10 02:02:10;;;;;;;17.02;13.93;;;;;;;12.66;69.63;101508.38;689992;28;1496;-79
2022/06/10 02:02:35;;;;;;;17.60;14.30;;;;;;;12.67;69.89;101504.91;684263;28;1842;-78
2022/06/10 02:03:03;;;;;;;18.20;14.32;;;;;;;12.67;69.75;101515.38;681970;29;1088;-78
2022/06/10 02:03:36;;;;;;;19.42;14.75;;;;;;;12.69;69.80;101518.91;682375;29;947;-78
2022/06/10 02:04:05;;;;;;;17.95;14.20;;;;;;;12.67;69.84;101510.13;688535;28;1313;-78
2022/06/10 02:04:30;;;;;;;16.25;13.57;;;;;;;12.67;69.48;101508.38;687735;28;1217;-78
2022/06/10 02:04:57;;;;;;;16.75;13.80;;;;;;;12.65;69.54;101504.84;682256;29;1203;-78
2022/06/10 02:05:21;;;;;;;20.45;14.52;;;;;;;12.64;69.69;101504.81;682429;29;1345;-78
2022/06/10 02:05:49;;;;;;;18.83;14.25;;;;;;;12.70;69.64;101518.06;687137;28;1747;-78
2022/06/10 02:06:21;;;;;;;17.55;14.10;;;;;;;12.60;69.86;101493.34;682229;29;1319;-78
2022/06/10 02:06:49;;;;;;;18.75;14.40;;;;;;;12.73;69.89;101520.81;679755;29;1113;-78
2022/06/10 02:07:18;;;;;;;18.02;14.35;;;;;;;12.62;69.86;101507.38;682166;29;1701;-78
2022/06/10 02:07:46;;;;;;;15.57;13.90;;;;;;;12.70;69.60;101523.31;685207;28;1270;-78
2022/06/10 02:08:18;;;;;;;15.27;13.68;;;;;;;12.65;69.77;101511.84;682793;28;1713;-78
2022/06/10 02:08:44;;;;;;;16.35;13.90;;;;;;;12.59;69.46;101502.94;684951;28;1116;-78
2022/06/10 02:09:09;;;;;;;16.52;14.05;;;;;;;12.56;69.48;101492.38;683997;28;1303;-78
2022/06/10 02:09:40;;;;;;;15.40;13.75;;;;;;;12.64;69.84;101510.94;680715;29;1543;-78
2022/06/10 02:10:26;;;;;;;16.25;13.70;;;;;;;12.58;69.54;101501.16;679279;29;1550;-78
2022/06/10 02:10:54;;;;;;;19.23;13.82;;;;;;;12.65;69.82;101514.44;683452;28;1345;-78
2022/06/10 02:11:18;;;;;;;18.00;13.90;;;;;;;12.50;69.64;101497.41;684809;28;1737;-78
2022/06/10 02:11:43;;;;;;;17.58;13.90;;;;;;;12.57;69.78;101507.25;682266;29;2036;-78
2022/06/10 02:12:29;;;;;;;17.08;13.60;;;;;;;12.55;69.89;101511.50;684930;28;1590;-78